createdAt,value
2023-03-19T00:03:58.240Z,7.38
2023-03-19T00:08:59.901Z,7.47
2023-03-19T00:14:01.698Z,7.40
2023-03-19T00:19:03.931Z,7.78
2023-03-19T00:24:05.930Z,7.68
2023-03-19T00:29:08.392Z,7.88
2023-03-19T00:34:10.447Z,6.65
2023-03-19T00:39:12.520Z,7.47
2023-03-19T00:44:14.152Z,7.40
2023-03-19T00:49:15.817Z,7.40
2023-03-19T00:54:17.917Z,7.60
2023-03-19T00:59:20.304Z,8.15
2023-03-19T01:04:24.005Z,7.65
2023-03-19T01:09:27.434Z,7.35
2023-03-19T01:14:29.071Z,7.13
2023-03-19T01:19:30.769Z,7.20
2023-03-19T01:24:32.646Z,7.15
2023-03-19T01:29:35.410Z,6.95
2023-03-19T01:34:46.672Z,7.75
2023-03-19T01:39:51.208Z,8.25
2023-03-19T01:44:53.027Z,8.02
2023-03-19T01:50:04.466Z,7.82
2023-03-19T01:55:07.406Z,7.68
2023-03-19T02:00:24.101Z,8.00
2023-03-19T02:05:29.181Z,7.93
2023-03-19T02:10:37.205Z,8.40
2023-03-19T02:15:39.210Z,8.38
2023-03-19T02:20:47.166Z,8.70
2023-03-19T02:26:10.220Z,8.98
2023-03-19T02:31:13.376Z,9.23
2023-03-19T02:36:18.263Z,8.73
2023-03-19T02:41:19.983Z,8.65
2023-03-19T02:46:21.749Z,8.70
2023-03-19T02:51:23.476Z,9.32
2023-03-19T02:56:26.214Z,9.65
2023-03-19T03:01:28.427Z,9.38
2023-03-19T03:06:30.523Z,8.65
2023-03-19T03:11:32.193Z,8.80
2023-03-19T03:16:33.856Z,8.68
2023-03-19T03:21:35.939Z,9.63
2023-03-19T03:26:39.007Z,9.15
2023-03-19T03:31:40.763Z,9.55
2023-03-19T03:36:42.423Z,10.55
2023-03-19T03:41:44.209Z,10.10
2023-03-19T03:46:46.616Z,10.38
2023-03-19T03:51:48.993Z,10.48
2023-03-19T03:56:51.246Z,10.85
2023-03-19T04:01:53.049Z,10.10
2023-03-19T04:06:55.443Z,10.93
2023-03-19T04:12:06.615Z,10.43
2023-03-19T04:17:08.254Z,10.95
2023-03-19T04:22:10.272Z,10.48
2023-03-19T04:27:12.452Z,10.68
2023-03-19T04:32:15.375Z,11.75
2023-03-19T04:37:17.520Z,11.52
2023-03-19T04:42:23.656Z,11.18
2023-03-19T04:47:32.817Z,12.82
2023-03-19T04:52:37.427Z,12.43
2023-03-19T04:57:39.661Z,11.50
2023-03-19T05:02:43.072Z,12.30
2023-03-19T05:07:45.316Z,12.63
2023-03-19T05:12:47.279Z,13.10
2023-03-19T05:17:50.054Z,11.75
2023-03-19T05:23:01.297Z,11.50
2023-03-19T05:28:12.585Z,11.55
2023-03-19T05:33:14.636Z,12.50
2023-03-19T05:38:19.615Z,12.43
2023-03-19T05:43:29.403Z,11.63
2023-03-19T05:48:33.608Z,12.63
2023-03-19T05:53:37.508Z,12.63
2023-03-19T05:59:01.000Z,13.45
2023-03-19T06:04:11.567Z,12.18
2023-03-19T06:09:13.529Z,11.40
2023-03-19T06:14:18.092Z,11.98
2023-03-19T06:19:34.029Z,12.45
2023-03-19T06:24:36.989Z,12.50
2023-03-19T06:29:39.007Z,12.50
2023-03-19T06:34:56.606Z,13.20
2023-03-19T06:39:58.694Z,12.25
2023-03-19T06:45:00.373Z,12.52
2023-03-19T06:50:22.029Z,12.95
2023-03-19T06:55:23.623Z,11.82
2023-03-19T07:00:25.348Z,12.07
2023-03-19T07:05:27.039Z,12.32
2023-03-19T07:10:29.120Z,12.00
2023-03-19T07:15:30.984Z,11.70
2023-03-19T07:20:33.336Z,12.13
2023-03-19T07:25:35.500Z,12.07
2023-03-19T07:30:38.503Z,12.35
2023-03-19T07:35:40.176Z,10.85
2023-03-19T07:40:51.362Z,12.93
2023-03-19T07:46:01.515Z,11.98
2023-03-19T07:51:06.541Z,12.27
2023-03-19T07:56:08.132Z,12.90
2023-03-19T08:01:10.194Z,11.88
2023-03-19T08:06:11.811Z,12.50
2023-03-19T08:11:14.716Z,12.18
2023-03-19T08:16:16.337Z,12.15
2023-03-19T08:21:18.239Z,11.35
2023-03-19T08:26:19.843Z,11.38
2023-03-19T08:31:21.531Z,11.43
2023-03-19T08:36:23.201Z,11.80
2023-03-19T08:41:25.362Z,12.15
2023-03-19T08:46:27.789Z,11.13
2023-03-19T08:51:31.501Z,11.50
2023-03-19T08:56:33.406Z,10.65
2023-03-19T09:01:35.569Z,11.13
2023-03-19T09:06:37.210Z,11.27
2023-03-19T09:11:39.075Z,10.82
2023-03-19T09:16:41.054Z,11.40
2023-03-19T09:21:43.076Z,11.20
2023-03-19T09:26:46.361Z,12.20
2023-03-19T09:31:48.101Z,10.73
2023-03-19T09:36:49.823Z,11.20
2023-03-19T09:42:08.837Z,10.45
2023-03-19T09:47:31.445Z,11.10
2023-03-19T09:52:49.605Z,10.55
2023-03-19T09:57:56.439Z,10.63
2023-03-19T10:03:16.712Z,10.07
2023-03-19T10:08:36.248Z,10.48
2023-03-19T10:13:49.757Z,10.10
2023-03-19T10:18:54.292Z,9.77
2023-03-19T10:24:02.491Z,10.05
2023-03-19T10:29:19.676Z,8.90
2023-03-19T10:34:31.810Z,9.23
2023-03-19T10:39:36.768Z,9.25
2023-03-19T10:44:50.942Z,9.75
2023-03-19T10:49:53.914Z,9.45
2023-03-19T10:55:02.222Z,8.57
2023-03-19T11:00:07.172Z,8.97
2023-03-19T11:05:15.602Z,8.80
2023-03-19T11:10:19.979Z,8.93
2023-03-19T11:15:43.419Z,7.53
2023-03-19T11:20:54.258Z,7.80
2023-03-19T11:26:01.719Z,7.80
2023-03-19T11:31:19.999Z,8.65
2023-03-19T11:36:29.549Z,8.40
2023-03-19T11:41:43.089Z,7.10
2023-03-19T11:47:03.857Z,7.88
2023-03-19T11:52:34.112Z,7.63
2023-03-19T11:58:06.838Z,8.57
2023-03-19T12:03:30.003Z,7.13
2023-03-19T12:08:51.234Z,7.65
2023-03-19T12:14:32.960Z,7.55
2023-03-19T12:20:03.157Z,8.35
2023-03-19T12:25:16.927Z,7.45
2023-03-19T12:30:26.538Z,7.60
2023-03-19T12:35:35.852Z,7.45
2023-03-19T12:40:52.673Z,7.57
2023-03-19T12:46:14.970Z,7.28
2023-03-19T12:51:22.791Z,7.97
2023-03-19T12:56:43.888Z,7.35
2023-03-19T13:01:51.099Z,7.43
2023-03-19T13:06:59.269Z,7.53
2023-03-19T13:12:10.707Z,7.28
2023-03-19T13:17:24.240Z,7.05
2023-03-19T13:22:37.418Z,7.00
2023-03-19T13:27:39.148Z,6.88
2023-03-19T13:32:48.041Z,7.30
2023-03-19T13:42:57.289Z,7.40
2023-03-19T13:48:28.650Z,7.47
2023-03-19T13:53:35.255Z,6.82
2023-03-19T13:59:16.998Z,6.88
2023-03-19T14:04:26.149Z,7.20
2023-03-19T14:14:44.450Z,6.47
2023-03-19T14:19:46.333Z,6.82
2023-03-19T14:25:15.150Z,6.97
2023-03-19T14:30:52.513Z,6.70
2023-03-19T14:35:54.312Z,6.72
2023-03-19T14:40:56.254Z,6.20
2023-03-19T14:46:00.941Z,6.18
2023-03-19T14:51:31.994Z,6.10
2023-03-19T14:56:35.848Z,5.70
2023-03-19T15:01:41.550Z,6.10
2023-03-19T15:06:51.789Z,6.55
2023-03-19T15:12:21.295Z,6.20
2023-03-19T15:17:29.801Z,6.40
2023-03-19T15:22:36.935Z,6.43
2023-03-19T15:27:41.182Z,6.63
2023-03-19T15:32:54.423Z,6.07
2023-03-19T15:38:09.728Z,7.45
2023-03-19T15:43:13.070Z,6.25
2023-03-19T15:48:25.569Z,6.25
2023-03-19T15:53:32.339Z,6.25
2023-03-19T15:58:48.565Z,5.82
2023-03-19T16:04:00.061Z,6.25
2023-03-19T16:09:23.890Z,6.03
2023-03-19T16:14:25.772Z,6.13
2023-03-19T16:19:40.093Z,6.75
2023-03-19T16:25:09.040Z,9.35
2023-03-19T16:30:27.672Z,9.07
2023-03-19T16:35:31.724Z,10.23
2023-03-19T16:40:42.830Z,9.93
2023-03-19T16:45:49.328Z,8.32
2023-03-19T16:50:51.642Z,8.00
2023-03-19T16:55:55.273Z,8.38
2023-03-19T17:00:59.365Z,10.05
2023-03-19T17:06:02.706Z,8.50
2023-03-19T17:11:09.371Z,8.35
2023-03-19T17:16:11.894Z,8.45
2023-03-19T17:21:32.569Z,8.00
2023-03-19T17:26:46.142Z,8.75
2023-03-19T17:31:54.290Z,8.52
2023-03-19T17:37:01.751Z,8.10
2023-03-19T17:42:16.528Z,8.35
2023-03-19T17:47:18.967Z,8.70
2023-03-19T17:52:21.302Z,8.20
2023-03-19T17:57:22.952Z,10.77
2023-03-19T18:02:32.027Z,8.98
2023-03-19T18:12:44.612Z,10.00
2023-03-19T18:17:53.000Z,10.32
2023-03-19T18:22:54.726Z,8.25
2023-03-19T18:27:57.100Z,9.23
2023-03-19T18:33:02.901Z,8.80
2023-03-19T18:38:16.151Z,8.25
2023-03-19T18:43:17.931Z,10.95
2023-03-19T18:48:24.610Z,10.40
2023-03-19T18:53:26.602Z,12.45
2023-03-19T18:58:29.174Z,12.18
2023-03-19T19:03:33.489Z,11.88
2023-03-19T19:08:35.440Z,11.57
2023-03-19T19:13:53.322Z,11.25
2023-03-19T19:18:57.674Z,11.02
2023-03-19T19:23:59.361Z,11.27
2023-03-19T19:29:01.473Z,10.82
2023-03-19T19:34:03.169Z,11.43
2023-03-19T19:39:04.925Z,11.13
2023-03-19T19:44:07.060Z,11.18
2023-03-19T19:49:13.435Z,11.40
2023-03-19T19:54:15.689Z,11.20
2023-03-19T19:59:25.586Z,12.07
2023-03-19T20:04:29.973Z,14.32
2023-03-19T20:09:32.342Z,12.82
2023-03-19T20:14:34.137Z,10.43
2023-03-19T20:19:35.910Z,9.70
2023-03-19T20:24:39.641Z,11.57
2023-03-19T20:29:41.512Z,10.45
2023-03-19T20:34:43.485Z,10.80
2023-03-19T20:39:45.374Z,11.07
2023-03-19T20:44:47.688Z,10.48
2023-03-19T20:49:49.539Z,11.02
2023-03-19T20:54:51.441Z,12.85
2023-03-19T20:59:53.200Z,13.88
2023-03-19T21:04:54.899Z,12.52
2023-03-19T21:09:58.083Z,12.07
2023-03-19T21:15:01.242Z,11.48
2023-03-19T21:20:03.224Z,8.82
2023-03-19T21:25:08.111Z,8.15
2023-03-19T21:30:14.736Z,7.32
2023-03-19T21:35:26.467Z,7.15
2023-03-19T21:40:30.794Z,7.25
2023-03-19T21:45:36.515Z,7.35
2023-03-19T21:50:40.103Z,8.18
2023-03-19T21:55:42.347Z,10.20
2023-03-19T22:00:44.990Z,13.20
2023-03-19T22:05:51.258Z,12.27
2023-03-19T22:10:57.131Z,11.05
2023-03-19T22:16:00.412Z,9.48
2023-03-19T22:21:02.396Z,9.35
2023-03-19T22:26:04.121Z,12.80
2023-03-19T22:31:06.323Z,12.82
2023-03-19T22:36:12.684Z,13.95
2023-03-19T22:41:28.779Z,12.65
2023-03-19T22:46:31.208Z,13.55
2023-03-19T22:51:33.163Z,13.98
2023-03-19T22:56:34.841Z,12.63
2023-03-19T23:01:47.213Z,12.32
2023-03-19T23:06:50.108Z,14.90
2023-03-19T23:11:53.616Z,14.23
2023-03-19T23:22:00.129Z,10.00
2023-03-19T23:27:02.978Z,11.52
2023-03-19T23:32:05.006Z,9.93
2023-03-19T23:37:06.976Z,9.65
2023-03-19T23:42:22.393Z,13.95
2023-03-19T23:47:24.249Z,12.73
2023-03-19T23:52:26.223Z,13.15
2023-03-19T23:57:27.908Z,13.13
